sensor_id;sensor_type;location;lat;lon;timestamp;P1;durP1;ratioP1;P2;durP2;ratioP2
6862;SDS011;3470;48.738;9.616;2023-04-24T00:01:54;4.43;;;2.07;;
6862;SDS011;3470;48.738;9.616;2023-04-24T00:04:21;2.00;;;1.40;;
6862;SDS011;3470;48.738;9.616;2023-04-24T00:06:47;2.13;;;1.13;;
6862;SDS011;3470;48.738;9.616;2023-04-24T00:09:18;1.40;;;1.30;;
6862;SDS011;3470;48.738;9.616;2023-04-24T00:11:44;3.33;;;1.80;;
6862;SDS011;3470;48.738;9.616;2023-04-24T00:14:10;1.20;;;1.10;;
6862;SDS011;3470;48.738;9.616;2023-04-24T00:16:35;2.90;;;1.50;;
6862;SDS011;3470;48.738;9.616;2023-04-24T00:19:01;2.63;;;1.40;;
6862;SDS011;3470;48.738;9.616;2023-04-24T00:21:27;1.77;;;1.40;;
6862;SDS011;3470;48.738;9.616;2023-04-24T00:23:52;3.03;;;1.50;;
6862;SDS011;3470;48.738;9.616;2023-04-24T00:26:18;2.80;;;1.50;;
6862;SDS011;3470;48.738;9.616;2023-04-24T00:28:43;2.20;;;1.37;;
6862;SDS011;3470;48.738;9.616;2023-04-24T00:31:09;2.13;;;1.60;;
6862;SDS011;3470;48.738;9.616;2023-04-24T00:33:35;2.10;;;1.30;;
6862;SDS011;3470;48.738;9.616;2023-04-24T00:36:00;2.13;;;1.30;;
6862;SDS011;3470;48.738;9.616;2023-04-24T00:38:26;1.57;;;1.27;;
6862;SDS011;3470;48.738;9.616;2023-04-24T00:40:51;1.70;;;1.20;;
6862;SDS011;3470;48.738;9.616;2023-04-24T00:43:18;5.20;;;2.20;;
6862;SDS011;3470;48.738;9.616;2023-04-24T00:45:44;2.93;;;1.40;;
6862;SDS011;3470;48.738;9.616;2023-04-24T00:48:10;2.20;;;1.27;;
6862;SDS011;3470;48.738;9.616;2023-04-24T00:50:37;1.53;;;1.40;;
6862;SDS011;3470;48.738;9.616;2023-04-24T00:53:03;2.07;;;1.57;;
6862;SDS011;3470;48.738;9.616;2023-04-24T00:55:29;1.97;;;1.50;;
6862;SDS011;3470;48.738;9.616;2023-04-24T00:57:55;1.37;;;1.10;;
6862;SDS011;3470;48.738;9.616;2023-04-24T01:00:21;1.50;;;1.30;;
6862;SDS011;3470;48.738;9.616;2023-04-24T01:02:47;1.93;;;1.77;;
6862;SDS011;3470;48.738;9.616;2023-04-24T01:05:13;3.07;;;1.50;;
6862;SDS011;3470;48.738;9.616;2023-04-24T01:07:40;1.63;;;1.20;;
6862;SDS011;3470;48.738;9.616;2023-04-24T01:10:09;3.23;;;1.57;;
6862;SDS011;3470;48.738;9.616;2023-04-24T01:12:35;2.57;;;1.27;;
6862;SDS011;3470;48.738;9.616;2023-04-24T01:15:01;1.20;;;1.10;;
6862;SDS011;3470;48.738;9.616;2023-04-24T01:17:28;2.83;;;1.20;;
6862;SDS011;3470;48.738;9.616;2023-04-24T01:19:54;1.80;;;1.10;;
6862;SDS011;3470;48.738;9.616;2023-04-24T01:22:22;2.20;;;1.30;;
6862;SDS011;3470;48.738;9.616;2023-04-24T01:24:48;1.33;;;1.10;;
6862;SDS011;3470;48.738;9.616;2023-04-24T01:27:13;1.73;;;1.47;;
6862;SDS011;3470;48.738;9.616;2023-04-24T01:29:40;1.20;;;1.10;;
6862;SDS011;3470;48.738;9.616;2023-04-24T01:32:06;2.60;;;1.50;;
6862;SDS011;3470;48.738;9.616;2023-04-24T01:34:32;1.87;;;1.20;;
6862;SDS011;3470;48.738;9.616;2023-04-24T01:36:58;2.63;;;1.23;;
6862;SDS011;3470;48.738;9.616;2023-04-24T01:39:24;2.43;;;1.50;;
6862;SDS011;3470;48.738;9.616;2023-04-24T01:41:50;1.53;;;1.20;;
6862;SDS011;3470;48.738;9.616;2023-04-24T01:44:17;1.63;;;1.20;;
6862;SDS011;3470;48.738;9.616;2023-04-24T01:46:43;1.73;;;1.30;;
6862;SDS011;3470;48.738;9.616;2023-04-24T01:49:09;2.47;;;1.50;;
6862;SDS011;3470;48.738;9.616;2023-04-24T01:51:34;1.20;;;1.10;;
6862;SDS011;3470;48.738;9.616;2023-04-24T01:54:00;1.17;;;1.07;;
6862;SDS011;3470;48.738;9.616;2023-04-24T01:56:25;2.67;;;1.50;;
6862;SDS011;3470;48.738;9.616;2023-04-24T01:58:55;1.97;;;1.27;;
6862;SDS011;3470;48.738;9.616;2023-04-24T02:01:23;1.30;;;1.20;;
6862;SDS011;3470;48.738;9.616;2023-04-24T02:03:49;3.83;;;1.47;;
6862;SDS011;3470;48.738;9.616;2023-04-24T02:06:15;1.93;;;1.33;;
6862;SDS011;3470;48.738;9.616;2023-04-24T02:08:40;1.70;;;1.50;;
6862;SDS011;3470;48.738;9.616;2023-04-24T02:11:08;5.57;;;1.30;;
6862;SDS011;3470;48.738;9.616;2023-04-24T02:13:34;2.43;;;1.40;;
6862;SDS011;3470;48.738;9.616;2023-04-24T02:15:59;1.63;;;1.10;;
6862;SDS011;3470;48.738;9.616;2023-04-24T02:18:25;1.83;;;1.50;;
6862;SDS011;3470;48.738;9.616;2023-04-24T02:20:51;2.50;;;1.57;;
6862;SDS011;3470;48.738;9.616;2023-04-24T02:23:17;1.57;;;1.30;;
6862;SDS011;3470;48.738;9.616;2023-04-24T02:25:42;2.73;;;1.50;;
6862;SDS011;3470;48.738;9.616;2023-04-24T02:28:08;2.83;;;1.53;;
6862;SDS011;3470;48.738;9.616;2023-04-24T02:30:33;1.77;;;1.47;;
6862;SDS011;3470;48.738;9.616;2023-04-24T02:32:59;1.50;;;1.40;;
6862;SDS011;3470;48.738;9.616;2023-04-24T02:35:25;2.83;;;1.63;;
6862;SDS011;3470;48.738;9.616;2023-04-24T02:37:50;2.57;;;1.60;;
6862;SDS011;3470;48.738;9.616;2023-04-24T02:40:16;3.00;;;1.70;;
6862;SDS011;3470;48.738;9.616;2023-04-24T02:42:41;3.57;;;2.23;;
6862;SDS011;3470;48.738;9.616;2023-04-24T02:45:07;2.53;;;1.93;;
6862;SDS011;3470;48.738;9.616;2023-04-24T02:47:33;3.17;;;1.70;;
6862;SDS011;3470;48.738;9.616;2023-04-24T02:49:58;3.67;;;1.70;;
6862;SDS011;3470;48.738;9.616;2023-04-24T02:52:24;1.90;;;1.70;;
6862;SDS011;3470;48.738;9.616;2023-04-24T02:54:49;4.03;;;1.60;;
6862;SDS011;3470;48.738;9.616;2023-04-24T02:57:15;2.43;;;1.57;;
6862;SDS011;3470;48.738;9.616;2023-04-24T02:59:41;2.33;;;1.70;;
6862;SDS011;3470;48.738;9.616;2023-04-24T03:02:06;3.00;;;1.80;;
6862;SDS011;3470;48.738;9.616;2023-04-24T03:04:32;2.83;;;2.40;;
6862;SDS011;3470;48.738;9.616;2023-04-24T03:06:57;3.80;;;2.33;;
6862;SDS011;3470;48.738;9.616;2023-04-24T03:09:23;2.97;;;2.23;;
6862;SDS011;3470;48.738;9.616;2023-04-24T03:11:49;2.00;;;1.63;;
6862;SDS011;3470;48.738;9.616;2023-04-24T03:14:15;2.57;;;2.03;;
6862;SDS011;3470;48.738;9.616;2023-04-24T03:16:41;2.60;;;1.80;;
6862;SDS011;3470;48.738;9.616;2023-04-24T03:19:06;3.30;;;1.50;;
6862;SDS011;3470;48.738;9.616;2023-04-24T03:21:32;1.90;;;1.33;;
6862;SDS011;3470;48.738;9.616;2023-04-24T03:23:58;2.90;;;1.57;;
6862;SDS011;3470;48.738;9.616;2023-04-24T03:26:24;1.40;;;1.30;;
6862;SDS011;3470;48.738;9.616;2023-04-24T03:28:50;2.30;;;1.57;;
6862;SDS011;3470;48.738;9.616;2023-04-24T03:31:15;2.37;;;1.50;;
6862;SDS011;3470;48.738;9.616;2023-04-24T03:33:41;1.60;;;1.40;;
6862;SDS011;3470;48.738;9.616;2023-04-24T03:36:07;1.83;;;1.40;;
6862;SDS011;3470;48.738;9.616;2023-04-24T03:38:33;1.73;;;1.33;;
6862;SDS011;3470;48.738;9.616;2023-04-24T03:40:58;2.80;;;1.30;;
6862;SDS011;3470;48.738;9.616;2023-04-24T03:43:24;1.43;;;1.33;;
6862;SDS011;3470;48.738;9.616;2023-04-24T03:45:49;1.97;;;1.40;;
6862;SDS011;3470;48.738;9.616;2023-04-24T03:48:15;2.33;;;1.60;;
6862;SDS011;3470;48.738;9.616;2023-04-24T03:50:41;1.77;;;1.40;;
6862;SDS011;3470;48.738;9.616;2023-04-24T03:53:09;1.53;;;1.30;;
6862;SDS011;3470;48.738;9.616;2023-04-24T03:55:35;1.40;;;1.20;;
6862;SDS011;3470;48.738;9.616;2023-04-24T03:58:01;4.23;;;1.73;;
6862;SDS011;3470;48.738;9.616;2023-04-24T04:00:26;1.63;;;1.30;;
6862;SDS011;3470;48.738;9.616;2023-04-24T04:02:52;1.47;;;1.37;;
6862;SDS011;3470;48.738;9.616;2023-04-24T04:05:18;3.90;;;1.63;;
6862;SDS011;3470;48.738;9.616;2023-04-24T04:07:43;1.50;;;1.30;;
6862;SDS011;3470;48.738;9.616;2023-04-24T04:10:09;6.90;;;1.80;;
6862;SDS011;3470;48.738;9.616;2023-04-24T04:12:35;2.17;;;1.40;;
6862;SDS011;3470;48.738;9.616;2023-04-24T04:15:00;1.40;;;1.20;;
6862;SDS011;3470;48.738;9.616;2023-04-24T04:17:26;1.53;;;1.43;;
6862;SDS011;3470;48.738;9.616;2023-04-24T04:19:51;5.13;;;1.40;;
6862;SDS011;3470;48.738;9.616;2023-04-24T04:22:17;1.70;;;1.37;;
6862;SDS011;3470;48.738;9.616;2023-04-24T04:24:43;3.17;;;1.70;;
6862;SDS011;3470;48.738;9.616;2023-04-24T04:27:09;1.93;;;1.30;;
6862;SDS011;3470;48.738;9.616;2023-04-24T04:29:35;3.20;;;1.30;;
6862;SDS011;3470;48.738;9.616;2023-04-24T04:32:01;1.93;;;1.63;;
6862;SDS011;3470;48.738;9.616;2023-04-24T04:34:27;3.03;;;1.60;;
6862;SDS011;3470;48.738;9.616;2023-04-24T04:36:53;3.63;;;1.67;;
6862;SDS011;3470;48.738;9.616;2023-04-24T04:39:19;3.07;;;1.60;;
6862;SDS011;3470;48.738;9.616;2023-04-24T04:41:45;3.80;;;1.77;;
6862;SDS011;3470;48.738;9.616;2023-04-24T04:44:14;4.23;;;2.00;;
6862;SDS011;3470;48.738;9.616;2023-04-24T04:46:39;3.03;;;1.50;;
6862;SDS011;3470;48.738;9.616;2023-04-24T04:49:06;3.30;;;1.70;;
6862;SDS011;3470;48.738;9.616;2023-04-24T04:51:33;4.17;;;1.77;;
6862;SDS011;3470;48.738;9.616;2023-04-24T04:53:59;3.73;;;1.40;;
6862;SDS011;3470;48.738;9.616;2023-04-24T04:56:25;1.70;;;1.60;;
6862;SDS011;3470;48.738;9.616;2023-04-24T04:58:51;1.87;;;1.47;;
6862;SDS011;3470;48.738;9.616;2023-04-24T05:01:16;2.83;;;1.50;;
6862;SDS011;3470;48.738;9.616;2023-04-24T05:03:42;3.37;;;1.53;;
6862;SDS011;3470;48.738;9.616;2023-04-24T05:06:08;2.00;;;1.60;;
6862;SDS011;3470;48.738;9.616;2023-04-24T05:08:34;4.97;;;1.77;;
6862;SDS011;3470;48.738;9.616;2023-04-24T05:10:59;3.97;;;1.90;;
6862;SDS011;3470;48.738;9.616;2023-04-24T05:13:25;3.57;;;1.60;;
6862;SDS011;3470;48.738;9.616;2023-04-24T05:15:51;3.33;;;1.87;;
6862;SDS011;3470;48.738;9.616;2023-04-24T05:18:16;2.60;;;1.57;;
6862;SDS011;3470;48.738;9.616;2023-04-24T05:20:42;1.93;;;1.53;;
6862;SDS011;3470;48.738;9.616;2023-04-24T05:23:09;3.73;;;1.73;;
6862;SDS011;3470;48.738;9.616;2023-04-24T05:25:34;2.10;;;1.90;;
6862;SDS011;3470;48.738;9.616;2023-04-24T05:28:01;3.37;;;1.90;;
6862;SDS011;3470;48.738;9.616;2023-04-24T05:30:27;2.13;;;1.77;;
6862;SDS011;3470;48.738;9.616;2023-04-24T05:32:53;2.80;;;1.83;;
6862;SDS011;3470;48.738;9.616;2023-04-24T05:35:18;5.77;;;2.10;;
6862;SDS011;3470;48.738;9.616;2023-04-24T05:37:44;2.10;;;1.90;;
6862;SDS011;3470;48.738;9.616;2023-04-24T05:40:10;3.40;;;2.67;;
6862;SDS011;3470;48.738;9.616;2023-04-24T05:42:36;4.90;;;2.83;;
6862;SDS011;3470;48.738;9.616;2023-04-24T05:45:01;5.40;;;4.30;;
6862;SDS011;3470;48.738;9.616;2023-04-24T05:47:27;5.37;;;4.37;;
6862;SDS011;3470;48.738;9.616;2023-04-24T05:49:53;4.60;;;3.50;;
6862;SDS011;3470;48.738;9.616;2023-04-24T05:52:18;5.87;;;3.40;;
6862;SDS011;3470;48.738;9.616;2023-04-24T05:54:44;5.43;;;3.40;;
6862;SDS011;3470;48.738;9.616;2023-04-24T05:57:10;4.00;;;3.60;;
6862;SDS011;3470;48.738;9.616;2023-04-24T05:59:38;4.90;;;4.00;;
6862;SDS011;3470;48.738;9.616;2023-04-24T06:02:04;4.47;;;3.77;;
6862;SDS011;3470;48.738;9.616;2023-04-24T06:04:30;3.90;;;3.60;;
6862;SDS011;3470;48.738;9.616;2023-04-24T06:06:56;3.87;;;3.47;;
6862;SDS011;3470;48.738;9.616;2023-04-24T06:09:22;5.63;;;3.70;;
6862;SDS011;3470;48.738;9.616;2023-04-24T06:11:48;4.87;;;3.80;;
6862;SDS011;3470;48.738;9.616;2023-04-24T06:14:14;4.77;;;4.03;;
6862;SDS011;3470;48.738;9.616;2023-04-24T06:16:41;4.20;;;3.70;;
6862;SDS011;3470;48.738;9.616;2023-04-24T06:19:07;4.10;;;3.70;;
6862;SDS011;3470;48.738;9.616;2023-04-24T06:21:32;5.17;;;4.10;;
6862;SDS011;3470;48.738;9.616;2023-04-24T06:23:58;4.67;;;4.27;;
6862;SDS011;3470;48.738;9.616;2023-04-24T06:26:24;5.07;;;3.90;;
6862;SDS011;3470;48.738;9.616;2023-04-24T06:28:51;5.83;;;3.90;;
6862;SDS011;3470;48.738;9.616;2023-04-24T06:31:18;5.20;;;3.93;;
6862;SDS011;3470;48.738;9.616;2023-04-24T06:33:44;5.40;;;3.87;;
6862;SDS011;3470;48.738;9.616;2023-04-24T06:36:10;6.10;;;4.40;;
6862;SDS011;3470;48.738;9.616;2023-04-24T06:38:36;4.53;;;3.80;;
6862;SDS011;3470;48.738;9.616;2023-04-24T06:41:02;4.30;;;3.80;;
6862;SDS011;3470;48.738;9.616;2023-04-24T06:43:29;5.20;;;3.77;;
6862;SDS011;3470;48.738;9.616;2023-04-24T06:45:56;5.10;;;3.40;;
6862;SDS011;3470;48.738;9.616;2023-04-24T06:48:23;4.50;;;3.70;;
6862;SDS011;3470;48.738;9.616;2023-04-24T06:50:49;4.00;;;3.47;;
6862;SDS011;3470;48.738;9.616;2023-04-24T06:53:14;4.10;;;3.23;;
6862;SDS011;3470;48.738;9.616;2023-04-24T06:55:40;6.13;;;3.93;;
6862;SDS011;3470;48.738;9.616;2023-04-24T06:58:06;4.40;;;3.70;;
6862;SDS011;3470;48.738;9.616;2023-04-24T07:00:32;3.00;;;2.70;;
6862;SDS011;3470;48.738;9.616;2023-04-24T07:02:58;2.87;;;2.50;;
6862;SDS011;3470;48.738;9.616;2023-04-24T07:05:23;2.97;;;2.00;;
6862;SDS011;3470;48.738;9.616;2023-04-24T07:07:49;4.47;;;1.90;;
6862;SDS011;3470;48.738;9.616;2023-04-24T07:10:16;2.10;;;1.90;;
6862;SDS011;3470;48.738;9.616;2023-04-24T07:12:41;2.38;;;1.75;;
6862;SDS011;3470;48.738;9.616;2023-04-24T07:15:07;2.03;;;1.83;;
6862;SDS011;3470;48.738;9.616;2023-04-24T07:17:33;1.85;;;1.63;;
6862;SDS011;3470;48.738;9.616;2023-04-24T07:20:00;2.38;;;1.50;;
6862;SDS011;3470;48.738;9.616;2023-04-24T07:22:25;2.13;;;1.60;;
6862;SDS011;3470;48.738;9.616;2023-04-24T07:24:51;2.13;;;1.63;;
6862;SDS011;3470;48.738;9.616;2023-04-24T07:27:17;3.28;;;1.70;;
6862;SDS011;3470;48.738;9.616;2023-04-24T07:29:42;1.83;;;1.60;;
6862;SDS011;3470;48.738;9.616;2023-04-24T07:32:08;2.80;;;1.98;;
6862;SDS011;3470;48.738;9.616;2023-04-24T07:34:34;1.95;;;1.73;;
6862;SDS011;3470;48.738;9.616;2023-04-24T07:37:00;3.03;;;2.00;;
6862;SDS011;3470;48.738;9.616;2023-04-24T07:39:25;2.60;;;1.80;;
6862;SDS011;3470;48.738;9.616;2023-04-24T07:41:51;2.10;;;1.90;;
6862;SDS011;3470;48.738;9.616;2023-04-24T07:44:17;1.77;;;1.65;;
6862;SDS011;3470;48.738;9.616;2023-04-24T07:46:42;2.50;;;2.08;;
6862;SDS011;3470;48.738;9.616;2023-04-24T07:49:08;1.45;;;1.35;;
6862;SDS011;3470;48.738;9.616;2023-04-24T07:51:33;1.95;;;1.85;;
6862;SDS011;3470;48.738;9.616;2023-04-24T07:54:03;3.83;;;1.75;;
6862;SDS011;3470;48.738;9.616;2023-04-24T07:56:30;3.28;;;2.03;;
6862;SDS011;3470;48.738;9.616;2023-04-24T07:58:56;4.20;;;2.30;;
6862;SDS011;3470;48.738;9.616;2023-04-24T08:01:22;2.90;;;2.70;;
6862;SDS011;3470;48.738;9.616;2023-04-24T08:03:48;4.23;;;2.90;;
6862;SDS011;3470;48.738;9.616;2023-04-24T08:06:13;5.17;;;2.97;;
6862;SDS011;3470;48.738;9.616;2023-04-24T08:08:39;4.67;;;3.00;;
6862;SDS011;3470;48.738;9.616;2023-04-24T08:11:04;3.90;;;3.10;;
6862;SDS011;3470;48.738;9.616;2023-04-24T08:13:30;2.83;;;2.53;;
6862;SDS011;3470;48.738;9.616;2023-04-24T08:15:56;3.93;;;3.47;;
6862;SDS011;3470;48.738;9.616;2023-04-24T08:18:22;3.43;;;3.13;;
6862;SDS011;3470;48.738;9.616;2023-04-24T08:20:47;16.20;;;10.20;;
6862;SDS011;3470;48.738;9.616;2023-04-24T08:23:13;10.63;;;6.80;;
6862;SDS011;3470;48.738;9.616;2023-04-24T08:25:39;21.53;;;15.93;;
6862;SDS011;3470;48.738;9.616;2023-04-24T08:28:05;16.10;;;11.80;;
6862;SDS011;3470;48.738;9.616;2023-04-24T08:30:33;36.03;;;24.90;;
6862;SDS011;3470;48.738;9.616;2023-04-24T08:32:59;10.50;;;6.40;;
6862;SDS011;3470;48.738;9.616;2023-04-24T08:35:24;23.90;;;17.90;;
6862;SDS011;3470;48.738;9.616;2023-04-24T08:37:51;16.58;;;11.27;;
6862;SDS011;3470;48.738;9.616;2023-04-24T08:40:18;11.60;;;7.97;;
6862;SDS011;3470;48.738;9.616;2023-04-24T08:42:50;53.63;;;35.00;;
6862;SDS011;3470;48.738;9.616;2023-04-24T08:45:21;30.02;;;23.33;;
6862;SDS011;3470;48.738;9.616;2023-04-24T08:47:47;14.60;;;11.47;;
6862;SDS011;3470;48.738;9.616;2023-04-24T08:50:14;5.60;;;4.13;;
6862;SDS011;3470;48.738;9.616;2023-04-24T08:52:41;3.30;;;2.30;;
6862;SDS011;3470;48.738;9.616;2023-04-24T08:55:07;4.13;;;3.73;;
6862;SDS011;3470;48.738;9.616;2023-04-24T08:57:33;2.53;;;2.33;;
6862;SDS011;3470;48.738;9.616;2023-04-24T09:00:00;3.03;;;2.30;;
6862;SDS011;3470;48.738;9.616;2023-04-24T09:02:26;4.33;;;2.87;;
6862;SDS011;3470;48.738;9.616;2023-04-24T09:04:53;2.80;;;1.90;;
6862;SDS011;3470;48.738;9.616;2023-04-24T09:07:22;2.73;;;2.17;;
6862;SDS011;3470;48.738;9.616;2023-04-24T09:09:52;4.57;;;4.13;;
6862;SDS011;3470;48.738;9.616;2023-04-24T09:12:19;2.63;;;2.40;;
6862;SDS011;3470;48.738;9.616;2023-04-24T09:14:45;1.87;;;1.70;;
6862;SDS011;3470;48.738;9.616;2023-04-24T09:17:11;1.97;;;1.60;;
6862;SDS011;3470;48.738;9.616;2023-04-24T09:19:37;1.70;;;1.60;;
6862;SDS011;3470;48.738;9.616;2023-04-24T09:22:06;1.63;;;1.52;;
6862;SDS011;3470;48.738;9.616;2023-04-24T09:24:33;2.08;;;1.50;;
6862;SDS011;3470;48.738;9.616;2023-04-24T09:26:59;1.67;;;1.40;;
6862;SDS011;3470;48.738;9.616;2023-04-24T09:29:26;2.67;;;1.50;;
6862;SDS011;3470;48.738;9.616;2023-04-24T09:31:52;2.15;;;1.30;;
6862;SDS011;3470;48.738;9.616;2023-04-24T09:34:22;2.05;;;1.60;;
6862;SDS011;3470;48.738;9.616;2023-04-24T09:36:48;3.42;;;1.80;;
6862;SDS011;3470;48.738;9.616;2023-04-24T09:39:14;2.60;;;1.50;;
6862;SDS011;3470;48.738;9.616;2023-04-24T09:41:50;2.78;;;1.83;;
6862;SDS011;3470;48.738;9.616;2023-04-24T09:44:22;4.22;;;1.80;;
6862;SDS011;3470;48.738;9.616;2023-04-24T09:46:58;1.85;;;1.30;;
6862;SDS011;3470;48.738;9.616;2023-04-24T09:49:25;2.47;;;1.45;;
6862;SDS011;3470;48.738;9.616;2023-04-24T09:51:53;2.33;;;1.63;;
6862;SDS011;3470;48.738;9.616;2023-04-24T09:54:30;3.10;;;1.43;;
6862;SDS011;3470;48.738;9.616;2023-04-24T09:56:56;1.77;;;1.63;;
6862;SDS011;3470;48.738;9.616;2023-04-24T09:59:22;1.80;;;1.40;;
6862;SDS011;3470;48.738;9.616;2023-04-24T10:01:47;2.13;;;1.70;;
6862;SDS011;3470;48.738;9.616;2023-04-24T10:04:23;2.50;;;1.40;;
6862;SDS011;3470;48.738;9.616;2023-04-24T10:06:51;2.17;;;1.40;;
6862;SDS011;3470;48.738;9.616;2023-04-24T10:09:19;3.03;;;1.40;;
6862;SDS011;3470;48.738;9.616;2023-04-24T10:11:50;3.97;;;2.88;;
6862;SDS011;3470;48.738;9.616;2023-04-24T10:14:18;3.38;;;2.13;;
6862;SDS011;3470;48.738;9.616;2023-04-24T10:16:48;2.88;;;2.15;;
6862;SDS011;3470;48.738;9.616;2023-04-24T10:19:15;2.10;;;1.90;;
6862;SDS011;3470;48.738;9.616;2023-04-24T10:21:43;2.10;;;1.90;;
6862;SDS011;3470;48.738;9.616;2023-04-24T10:24:13;3.78;;;3.15;;
6862;SDS011;3470;48.738;9.616;2023-04-24T10:26:40;2.20;;;1.85;;
6862;SDS011;3470;48.738;9.616;2023-04-24T10:29:06;3.22;;;2.78;;
6862;SDS011;3470;48.738;9.616;2023-04-24T10:31:37;2.20;;;1.88;;
6862;SDS011;3470;48.738;9.616;2023-04-24T10:34:04;2.22;;;2.00;;
6862;SDS011;3470;48.738;9.616;2023-04-24T10:36:30;1.77;;;1.00;;
6862;SDS011;3470;48.738;9.616;2023-04-24T10:38:59;1.80;;;1.60;;
6862;SDS011;3470;48.738;9.616;2023-04-24T10:41:27;3.03;;;1.15;;
6862;SDS011;3470;48.738;9.616;2023-04-24T10:44:04;1.27;;;1.10;;
6862;SDS011;3470;48.738;9.616;2023-04-24T10:46:33;1.65;;;1.40;;
6862;SDS011;3470;48.738;9.616;2023-04-24T10:48:59;1.73;;;1.30;;
6862;SDS011;3470;48.738;9.616;2023-04-24T10:54:26;2.05;;;1.70;;
6862;SDS011;3470;48.738;9.616;2023-04-24T10:59:43;1.95;;;1.08;;
6862;SDS011;3470;48.738;9.616;2023-04-24T11:02:09;1.38;;;1.10;;
6862;SDS011;3470;48.738;9.616;2023-04-24T11:04:35;1.92;;;1.30;;
6862;SDS011;3470;48.738;9.616;2023-04-24T11:07:02;2.08;;;1.20;;
6862;SDS011;3470;48.738;9.616;2023-04-24T11:09:30;2.95;;;1.08;;
6862;SDS011;3470;48.738;9.616;2023-04-24T11:12:07;1.77;;;1.40;;
6862;SDS011;3470;48.738;9.616;2023-04-24T11:15:21;3.90;;;1.20;;
6862;SDS011;3470;48.738;9.616;2023-04-24T11:17:34;1.50;;;1.15;;
6862;SDS011;3470;48.738;9.616;2023-04-24T11:20:07;1.10;;;1.00;;
6862;SDS011;3470;48.738;9.616;2023-04-24T11:22:37;1.85;;;1.00;;
6862;SDS011;3470;48.738;9.616;2023-04-24T11:25:05;1.10;;;1.10;;
6862;SDS011;3470;48.738;9.616;2023-04-24T11:27:32;1.13;;;1.10;;
6862;SDS011;3470;48.738;9.616;2023-04-24T11:30:05;0.98;;;0.98;;
6862;SDS011;3470;48.738;9.616;2023-04-24T11:32:40;3.00;;;1.33;;
6862;SDS011;3470;48.738;9.616;2023-04-24T11:35:14;2.00;;;1.30;;
6862;SDS011;3470;48.738;9.616;2023-04-24T11:37:48;1.33;;;1.23;;
6862;SDS011;3470;48.738;9.616;2023-04-24T11:40:16;1.70;;;1.60;;
6862;SDS011;3470;48.738;9.616;2023-04-24T11:42:45;5.13;;;3.97;;
6862;SDS011;3470;48.738;9.616;2023-04-24T11:45:13;9.47;;;6.20;;
6862;SDS011;3470;48.738;9.616;2023-04-24T11:47:43;4.17;;;3.33;;
6862;SDS011;3470;48.738;9.616;2023-04-24T11:50:11;4.97;;;3.50;;
6862;SDS011;3470;48.738;9.616;2023-04-24T11:52:48;7.73;;;6.37;;
6862;SDS011;3470;48.738;9.616;2023-04-24T11:57:44;10.53;;;7.30;;
6862;SDS011;3470;48.738;9.616;2023-04-24T12:00:15;10.67;;;7.60;;
6862;SDS011;3470;48.738;9.616;2023-04-24T12:02:42;13.83;;;9.67;;
6862;SDS011;3470;48.738;9.616;2023-04-24T12:05:07;10.03;;;7.00;;
6862;SDS011;3470;48.738;9.616;2023-04-24T12:07:40;14.63;;;10.73;;
6862;SDS011;3470;48.738;9.616;2023-04-24T12:10:08;9.30;;;6.43;;
6862;SDS011;3470;48.738;9.616;2023-04-24T12:12:34;3.63;;;2.77;;
6862;SDS011;3470;48.738;9.616;2023-04-24T12:15:00;5.83;;;5.23;;
6862;SDS011;3470;48.738;9.616;2023-04-24T12:17:31;2.57;;;1.83;;
6862;SDS011;3470;48.738;9.616;2023-04-24T12:20:02;1.57;;;1.40;;
6862;SDS011;3470;48.738;9.616;2023-04-24T12:22:45;2.63;;;1.53;;
6862;SDS011;3470;48.738;9.616;2023-04-24T12:25:12;1.40;;;1.30;;
6862;SDS011;3470;48.738;9.616;2023-04-24T12:27:38;2.60;;;1.40;;
6862;SDS011;3470;48.738;9.616;2023-04-24T12:30:04;1.37;;;1.27;;
6862;SDS011;3470;48.738;9.616;2023-04-24T12:32:31;1.47;;;1.20;;
6862;SDS011;3470;48.738;9.616;2023-04-24T12:34:57;1.33;;;1.23;;
6862;SDS011;3470;48.738;9.616;2023-04-24T12:37:24;1.47;;;1.33;;
6862;SDS011;3470;48.738;9.616;2023-04-24T12:40:00;1.93;;;1.80;;
6862;SDS011;3470;48.738;9.616;2023-04-24T12:42:27;2.03;;;1.37;;
6862;SDS011;3470;48.738;9.616;2023-04-24T12:44:56;1.87;;;1.50;;
6862;SDS011;3470;48.738;9.616;2023-04-24T12:47:26;2.50;;;1.53;;
6862;SDS011;3470;48.738;9.616;2023-04-24T12:49:53;2.55;;;1.30;;
6862;SDS011;3470;48.738;9.616;2023-04-24T12:52:20;3.10;;;1.10;;
6862;SDS011;3470;48.738;9.616;2023-04-24T12:54:46;1.17;;;1.10;;
6862;SDS011;3470;48.738;9.616;2023-04-24T12:57:12;1.40;;;1.30;;
6862;SDS011;3470;48.738;9.616;2023-04-24T12:59:37;1.25;;;1.15;;
6862;SDS011;3470;48.738;9.616;2023-04-24T13:02:04;1.40;;;1.30;;
6862;SDS011;3470;48.738;9.616;2023-04-24T13:04:30;1.40;;;1.30;;
6862;SDS011;3470;48.738;9.616;2023-04-24T13:06:55;3.47;;;1.40;;
6862;SDS011;3470;48.738;9.616;2023-04-24T13:09:21;1.50;;;1.40;;
6862;SDS011;3470;48.738;9.616;2023-04-24T13:11:47;2.17;;;1.77;;
6862;SDS011;3470;48.738;9.616;2023-04-24T13:14:12;3.20;;;1.50;;
6862;SDS011;3470;48.738;9.616;2023-04-24T13:16:38;2.27;;;1.67;;
6862;SDS011;3470;48.738;9.616;2023-04-24T13:19:03;1.70;;;1.40;;
6862;SDS011;3470;48.738;9.616;2023-04-24T13:21:29;1.83;;;1.40;;
6862;SDS011;3470;48.738;9.616;2023-04-24T13:23:55;1.80;;;1.47;;
6862;SDS011;3470;48.738;9.616;2023-04-24T13:26:21;2.00;;;1.30;;
6862;SDS011;3470;48.738;9.616;2023-04-24T13:28:46;1.37;;;1.10;;
6862;SDS011;3470;48.738;9.616;2023-04-24T13:31:12;1.50;;;1.30;;
6862;SDS011;3470;48.738;9.616;2023-04-24T13:33:38;2.40;;;1.30;;
6862;SDS011;3470;48.738;9.616;2023-04-24T13:36:05;1.53;;;1.30;;
6862;SDS011;3470;48.738;9.616;2023-04-24T13:38:31;2.03;;;1.20;;
6862;SDS011;3470;48.738;9.616;2023-04-24T13:40:56;2.20;;;1.40;;
6862;SDS011;3470;48.738;9.616;2023-04-24T13:43:22;1.83;;;1.43;;
6862;SDS011;3470;48.738;9.616;2023-04-24T13:45:48;2.30;;;1.30;;
6862;SDS011;3470;48.738;9.616;2023-04-24T13:48:13;1.60;;;1.50;;
6862;SDS011;3470;48.738;9.616;2023-04-24T13:50:42;1.60;;;1.40;;
6862;SDS011;3470;48.738;9.616;2023-04-24T13:53:09;1.40;;;1.30;;
6862;SDS011;3470;48.738;9.616;2023-04-24T13:55:34;1.50;;;1.40;;
6862;SDS011;3470;48.738;9.616;2023-04-24T13:58:00;1.70;;;1.60;;
6862;SDS011;3470;48.738;9.616;2023-04-24T14:00:27;4.13;;;1.63;;
6862;SDS011;3470;48.738;9.616;2023-04-24T14:02:53;1.37;;;1.20;;
6862;SDS011;3470;48.738;9.616;2023-04-24T14:05:18;1.90;;;1.43;;
6862;SDS011;3470;48.738;9.616;2023-04-24T14:07:45;3.83;;;1.50;;
6862;SDS011;3470;48.738;9.616;2023-04-24T14:10:11;1.73;;;1.30;;
6862;SDS011;3470;48.738;9.616;2023-04-24T14:12:36;1.60;;;1.50;;
6862;SDS011;3470;48.738;9.616;2023-04-24T14:15:02;1.97;;;1.80;;
6862;SDS011;3470;48.738;9.616;2023-04-24T14:17:29;1.60;;;1.50;;
6862;SDS011;3470;48.738;9.616;2023-04-24T14:19:55;2.03;;;1.83;;
6862;SDS011;3470;48.738;9.616;2023-04-24T14:22:21;1.80;;;1.43;;
6862;SDS011;3470;48.738;9.616;2023-04-24T14:24:47;1.47;;;1.37;;
6862;SDS011;3470;48.738;9.616;2023-04-24T14:27:13;1.40;;;1.30;;
6862;SDS011;3470;48.738;9.616;2023-04-24T14:29:38;3.83;;;2.00;;
6862;SDS011;3470;48.738;9.616;2023-04-24T14:32:04;2.67;;;2.30;;
6862;SDS011;3470;48.738;9.616;2023-04-24T14:34:30;2.07;;;1.87;;
6862;SDS011;3470;48.738;9.616;2023-04-24T14:36:55;2.63;;;1.80;;
6862;SDS011;3470;48.738;9.616;2023-04-24T14:39:21;2.40;;;2.20;;
6862;SDS011;3470;48.738;9.616;2023-04-24T14:41:47;2.33;;;2.13;;
6862;SDS011;3470;48.738;9.616;2023-04-24T14:44:12;2.77;;;1.87;;
6862;SDS011;3470;48.738;9.616;2023-04-24T14:46:38;2.07;;;1.87;;
6862;SDS011;3470;48.738;9.616;2023-04-24T14:49:03;3.00;;;2.50;;
6862;SDS011;3470;48.738;9.616;2023-04-24T14:51:29;2.23;;;1.90;;
6862;SDS011;3470;48.738;9.616;2023-04-24T14:53:56;2.07;;;1.80;;
6862;SDS011;3470;48.738;9.616;2023-04-24T14:56:21;2.80;;;1.80;;
6862;SDS011;3470;48.738;9.616;2023-04-24T14:58:48;1.97;;;1.73;;
6862;SDS011;3470;48.738;9.616;2023-04-24T15:01:13;2.30;;;2.00;;
6862;SDS011;3470;48.738;9.616;2023-04-24T15:03:39;2.00;;;1.80;;
6862;SDS011;3470;48.738;9.616;2023-04-24T15:06:05;1.40;;;1.30;;
6862;SDS011;3470;48.738;9.616;2023-04-24T15:08:31;2.13;;;1.60;;
6862;SDS011;3470;48.738;9.616;2023-04-24T15:10:56;2.70;;;1.83;;
6862;SDS011;3470;48.738;9.616;2023-04-24T15:13:22;1.87;;;1.70;;
6862;SDS011;3470;48.738;9.616;2023-04-24T15:15:48;5.00;;;2.13;;
6862;SDS011;3470;48.738;9.616;2023-04-24T15:18:13;2.17;;;1.97;;
6862;SDS011;3470;48.738;9.616;2023-04-24T15:20:39;2.30;;;2.10;;